sensor_id;sensor_type;location;lat;lon;timestamp;P1;durP1;ratioP1;P2;durP2;ratioP2
18140;SDS011;9196;49.194;12.526;2024-02-23T00:02:12;1.10;;;1.05;;
18140;SDS011;9196;49.194;12.526;2024-02-23T00:04:39;1.92;;;0.90;;
18140;SDS011;9196;49.194;12.526;2024-02-23T00:07:06;1.10;;;1.10;;
18140;SDS011;9196;49.194;12.526;2024-02-23T00:09:35;1.23;;;1.23;;
18140;SDS011;9196;49.194;12.526;2024-02-23T00:12:02;1.10;;;1.10;;
18140;SDS011;9196;49.194;12.526;2024-02-23T00:14:29;1.25;;;1.25;;
18140;SDS011;9196;49.194;12.526;2024-02-23T00:16:56;1.40;;;1.30;;
18140;SDS011;9196;49.194;12.526;2024-02-23T00:19:22;4.10;;;1.37;;
18140;SDS011;9196;49.194;12.526;2024-02-23T00:21:50;1.80;;;1.70;;
18140;SDS011;9196;49.194;12.526;2024-02-23T00:24:18;2.03;;;1.93;;
18140;SDS011;9196;49.194;12.526;2024-02-23T00:26:47;1.47;;;1.37;;
18140;SDS011;9196;49.194;12.526;2024-02-23T00:29:14;1.50;;;1.50;;
18140;SDS011;9196;49.194;12.526;2024-02-23T00:31:41;1.27;;;1.27;;
18140;SDS011;9196;49.194;12.526;2024-02-23T00:34:07;1.20;;;1.20;;
18140;SDS011;9196;49.194;12.526;2024-02-23T00:36:35;1.10;;;1.10;;
18140;SDS011;9196;49.194;12.526;2024-02-23T00:39:03;1.20;;;1.20;;
18140;SDS011;9196;49.194;12.526;2024-02-23T00:41:29;1.27;;;1.20;;
18140;SDS011;9196;49.194;12.526;2024-02-23T00:43:58;1.63;;;1.50;;
18140;SDS011;9196;49.194;12.526;2024-02-23T00:46:24;1.10;;;1.10;;
18140;SDS011;9196;49.194;12.526;2024-02-23T00:48:51;1.20;;;1.10;;
18140;SDS011;9196;49.194;12.526;2024-02-23T00:51:18;1.23;;;1.10;;
18140;SDS011;9196;49.194;12.526;2024-02-23T00:53:45;1.00;;;1.00;;
18140;SDS011;9196;49.194;12.526;2024-02-23T00:56:12;0.90;;;0.90;;
18140;SDS011;9196;49.194;12.526;2024-02-23T00:58:39;0.80;;;0.80;;
18140;SDS011;9196;49.194;12.526;2024-02-23T01:01:07;1.20;;;1.20;;
18140;SDS011;9196;49.194;12.526;2024-02-23T01:03:34;1.30;;;0.93;;
18140;SDS011;9196;49.194;12.526;2024-02-23T01:06:01;1.08;;;1.08;;
18140;SDS011;9196;49.194;12.526;2024-02-23T01:08:28;0.80;;;0.80;;
18140;SDS011;9196;49.194;12.526;2024-02-23T01:10:55;1.30;;;1.30;;
18140;SDS011;9196;49.194;12.526;2024-02-23T01:13:22;0.80;;;0.80;;
18140;SDS011;9196;49.194;12.526;2024-02-23T01:15:49;1.00;;;1.00;;
18140;SDS011;9196;49.194;12.526;2024-02-23T01:18:17;0.77;;;0.77;;
18140;SDS011;9196;49.194;12.526;2024-02-23T01:20:44;0.73;;;0.73;;
18140;SDS011;9196;49.194;12.526;2024-02-23T01:23:10;1.17;;;1.00;;
18140;SDS011;9196;49.194;12.526;2024-02-23T01:25:37;0.80;;;0.80;;
18140;SDS011;9196;49.194;12.526;2024-02-23T01:28:04;0.90;;;0.90;;
18140;SDS011;9196;49.194;12.526;2024-02-23T01:30:31;0.82;;;0.82;;
18140;SDS011;9196;49.194;12.526;2024-02-23T01:32:58;1.10;;;1.00;;
18140;SDS011;9196;49.194;12.526;2024-02-23T01:35:27;1.17;;;0.90;;
18140;SDS011;9196;49.194;12.526;2024-02-23T01:37:55;0.83;;;0.83;;
18140;SDS011;9196;49.194;12.526;2024-02-23T01:40:22;0.70;;;0.70;;
18140;SDS011;9196;49.194;12.526;2024-02-23T01:42:49;0.90;;;0.80;;
18140;SDS011;9196;49.194;12.526;2024-02-23T01:45:25;0.93;;;0.90;;
18140;SDS011;9196;49.194;12.526;2024-02-23T01:47:53;2.63;;;0.90;;
18140;SDS011;9196;49.194;12.526;2024-02-23T01:50:20;1.88;;;0.68;;
18140;SDS011;9196;49.194;12.526;2024-02-23T01:52:48;0.80;;;0.80;;
18140;SDS011;9196;49.194;12.526;2024-02-23T01:55:16;0.60;;;0.60;;
18140;SDS011;9196;49.194;12.526;2024-02-23T01:57:44;0.60;;;0.60;;
18140;SDS011;9196;49.194;12.526;2024-02-23T02:00:13;0.60;;;0.60;;
18140;SDS011;9196;49.194;12.526;2024-02-23T02:02:43;0.60;;;0.60;;
18140;SDS011;9196;49.194;12.526;2024-02-23T02:05:09;0.77;;;0.70;;
18140;SDS011;9196;49.194;12.526;2024-02-23T02:07:36;1.50;;;0.60;;
18140;SDS011;9196;49.194;12.526;2024-02-23T02:10:06;0.77;;;0.55;;
18140;SDS011;9196;49.194;12.526;2024-02-23T02:12:34;0.60;;;0.60;;
18140;SDS011;9196;49.194;12.526;2024-02-23T02:15:01;0.60;;;0.60;;
18140;SDS011;9196;49.194;12.526;2024-02-23T02:17:29;0.52;;;0.50;;
18140;SDS011;9196;49.194;12.526;2024-02-23T02:19:56;0.50;;;0.50;;
18140;SDS011;9196;49.194;12.526;2024-02-23T02:22:25;0.77;;;0.75;;
18140;SDS011;9196;49.194;12.526;2024-02-23T02:24:52;0.60;;;0.60;;
18140;SDS011;9196;49.194;12.526;2024-02-23T02:27:20;0.60;;;0.60;;
18140;SDS011;9196;49.194;12.526;2024-02-23T02:29:49;0.60;;;0.60;;
18140;SDS011;9196;49.194;12.526;2024-02-23T02:32:16;0.57;;;0.57;;
18140;SDS011;9196;49.194;12.526;2024-02-23T02:34:43;0.50;;;0.50;;
18140;SDS011;9196;49.194;12.526;2024-02-23T02:37:10;0.60;;;0.60;;
18140;SDS011;9196;49.194;12.526;2024-02-23T02:39:36;0.60;;;0.60;;
18140;SDS011;9196;49.194;12.526;2024-02-23T02:42:03;0.60;;;0.60;;
18140;SDS011;9196;49.194;12.526;2024-02-23T02:44:32;2.00;;;1.55;;
18140;SDS011;9196;49.194;12.526;2024-02-23T02:46:58;1.60;;;1.10;;
18140;SDS011;9196;49.194;12.526;2024-02-23T02:49:25;0.70;;;0.60;;
18140;SDS011;9196;49.194;12.526;2024-02-23T02:51:52;0.60;;;0.60;;
18140;SDS011;9196;49.194;12.526;2024-02-23T02:54:19;0.60;;;0.60;;
18140;SDS011;9196;49.194;12.526;2024-02-23T02:56:46;1.00;;;0.85;;
18140;SDS011;9196;49.194;12.526;2024-02-23T02:59:15;0.70;;;0.70;;
18140;SDS011;9196;49.194;12.526;2024-02-23T03:01:44;0.60;;;0.60;;
18140;SDS011;9196;49.194;12.526;2024-02-23T03:04:12;0.60;;;0.60;;
18140;SDS011;9196;49.194;12.526;2024-02-23T03:06:39;0.60;;;0.60;;
18140;SDS011;9196;49.194;12.526;2024-02-23T03:09:06;0.60;;;0.60;;
18140;SDS011;9196;49.194;12.526;2024-02-23T03:11:33;0.60;;;0.60;;
18140;SDS011;9196;49.194;12.526;2024-02-23T03:14:00;0.70;;;0.70;;
18140;SDS011;9196;49.194;12.526;2024-02-23T03:16:27;0.88;;;0.88;;
18140;SDS011;9196;49.194;12.526;2024-02-23T03:18:56;2.05;;;0.73;;
18140;SDS011;9196;49.194;12.526;2024-02-23T03:21:23;4.90;;;1.20;;
18140;SDS011;9196;49.194;12.526;2024-02-23T03:23:50;1.35;;;0.70;;
18140;SDS011;9196;49.194;12.526;2024-02-23T03:26:17;0.60;;;0.60;;
18140;SDS011;9196;49.194;12.526;2024-02-23T03:28:44;0.60;;;0.60;;
18140;SDS011;9196;49.194;12.526;2024-02-23T03:31:11;0.60;;;0.60;;
18140;SDS011;9196;49.194;12.526;2024-02-23T03:33:37;0.50;;;0.50;;
18140;SDS011;9196;49.194;12.526;2024-02-23T03:36:06;0.50;;;0.50;;
18140;SDS011;9196;49.194;12.526;2024-02-23T03:38:33;1.40;;;1.08;;
18140;SDS011;9196;49.194;12.526;2024-02-23T03:41:00;4.15;;;0.95;;
18140;SDS011;9196;49.194;12.526;2024-02-23T03:43:27;0.65;;;0.65;;
18140;SDS011;9196;49.194;12.526;2024-02-23T03:45:53;0.77;;;0.77;;
18140;SDS011;9196;49.194;12.526;2024-02-23T03:48:20;0.82;;;0.82;;
18140;SDS011;9196;49.194;12.526;2024-02-23T03:50:47;0.70;;;0.70;;
18140;SDS011;9196;49.194;12.526;2024-02-23T03:53:15;0.60;;;0.60;;
18140;SDS011;9196;49.194;12.526;2024-02-23T03:55:42;1.23;;;0.85;;
18140;SDS011;9196;49.194;12.526;2024-02-23T03:58:09;5.07;;;2.65;;
18140;SDS011;9196;49.194;12.526;2024-02-23T04:00:35;1.85;;;0.88;;
18140;SDS011;9196;49.194;12.526;2024-02-23T04:03:02;2.05;;;0.80;;
18140;SDS011;9196;49.194;12.526;2024-02-23T04:05:29;3.65;;;1.25;;
18140;SDS011;9196;49.194;12.526;2024-02-23T04:07:57;0.70;;;0.70;;
18140;SDS011;9196;49.194;12.526;2024-02-23T04:10:25;1.20;;;0.70;;
18140;SDS011;9196;49.194;12.526;2024-02-23T04:12:52;2.53;;;0.60;;
18140;SDS011;9196;49.194;12.526;2024-02-23T04:15:18;1.15;;;0.80;;
18140;SDS011;9196;49.194;12.526;2024-02-23T04:17:45;3.13;;;1.30;;
18140;SDS011;9196;49.194;12.526;2024-02-23T04:20:12;0.80;;;0.70;;
18140;SDS011;9196;49.194;12.526;2024-02-23T04:22:39;1.38;;;0.80;;
18140;SDS011;9196;49.194;12.526;2024-02-23T04:25:07;2.20;;;0.85;;
18140;SDS011;9196;49.194;12.526;2024-02-23T04:27:35;0.70;;;0.70;;
18140;SDS011;9196;49.194;12.526;2024-02-23T04:30:02;3.42;;;0.82;;
18140;SDS011;9196;49.194;12.526;2024-02-23T04:32:29;1.02;;;0.82;;
18140;SDS011;9196;49.194;12.526;2024-02-23T04:34:56;4.50;;;0.95;;
18140;SDS011;9196;49.194;12.526;2024-02-23T04:37:23;0.95;;;0.95;;
18140;SDS011;9196;49.194;12.526;2024-02-23T04:39:50;5.32;;;1.10;;
18140;SDS011;9196;49.194;12.526;2024-02-23T04:42:17;0.70;;;0.70;;
18140;SDS011;9196;49.194;12.526;2024-02-23T04:44:45;1.88;;;1.15;;
18140;SDS011;9196;49.194;12.526;2024-02-23T04:47:14;0.60;;;0.60;;
18140;SDS011;9196;49.194;12.526;2024-02-23T04:49:41;1.77;;;0.90;;
18140;SDS011;9196;49.194;12.526;2024-02-23T04:52:07;0.60;;;0.60;;
18140;SDS011;9196;49.194;12.526;2024-02-23T04:54:34;0.70;;;0.60;;
18140;SDS011;9196;49.194;12.526;2024-02-23T04:57:01;1.00;;;0.90;;
18140;SDS011;9196;49.194;12.526;2024-02-23T04:59:28;0.98;;;0.70;;
18140;SDS011;9196;49.194;12.526;2024-02-23T05:01:58;0.75;;;0.73;;
18140;SDS011;9196;49.194;12.526;2024-02-23T05:04:25;1.55;;;1.10;;
18140;SDS011;9196;49.194;12.526;2024-02-23T05:06:53;2.38;;;0.88;;
18140;SDS011;9196;49.194;12.526;2024-02-23T05:09:20;2.15;;;0.90;;
18140;SDS011;9196;49.194;12.526;2024-02-23T05:11:46;2.35;;;0.70;;
18140;SDS011;9196;49.194;12.526;2024-02-23T05:14:13;5.03;;;0.98;;
18140;SDS011;9196;49.194;12.526;2024-02-23T05:16:40;2.15;;;1.20;;
18140;SDS011;9196;49.194;12.526;2024-02-23T05:19:07;1.83;;;1.03;;
18140;SDS011;9196;49.194;12.526;2024-02-23T05:21:34;1.45;;;1.38;;
18140;SDS011;9196;49.194;12.526;2024-02-23T05:24:01;3.20;;;1.15;;
18140;SDS011;9196;49.194;12.526;2024-02-23T05:26:28;1.30;;;1.20;;
18140;SDS011;9196;49.194;12.526;2024-02-23T05:28:55;3.25;;;1.10;;
18140;SDS011;9196;49.194;12.526;2024-02-23T05:31:22;1.88;;;1.60;;
18140;SDS011;9196;49.194;12.526;2024-02-23T05:34:11;1.33;;;1.23;;
18140;SDS011;9196;49.194;12.526;2024-02-23T05:36:38;2.58;;;1.17;;
18140;SDS011;9196;49.194;12.526;2024-02-23T05:39:05;4.97;;;1.80;;
18140;SDS011;9196;49.194;12.526;2024-02-23T05:41:32;2.03;;;1.40;;
18140;SDS011;9196;49.194;12.526;2024-02-23T05:43:59;2.90;;;1.30;;
18140;SDS011;9196;49.194;12.526;2024-02-23T05:46:29;2.35;;;1.27;;
18140;SDS011;9196;49.194;12.526;2024-02-23T05:48:55;3.30;;;1.10;;
18140;SDS011;9196;49.194;12.526;2024-02-23T05:51:25;1.17;;;1.00;;
18140;SDS011;9196;49.194;12.526;2024-02-23T05:53:54;0.90;;;0.90;;
18140;SDS011;9196;49.194;12.526;2024-02-23T05:56:21;1.08;;;1.08;;
18140;SDS011;9196;49.194;12.526;2024-02-23T05:58:48;1.50;;;1.05;;
18140;SDS011;9196;49.194;12.526;2024-02-23T06:01:15;2.67;;;1.25;;
18140;SDS011;9196;49.194;12.526;2024-02-23T06:03:42;1.55;;;1.45;;
18140;SDS011;9196;49.194;12.526;2024-02-23T06:06:09;2.35;;;1.45;;
18140;SDS011;9196;49.194;12.526;2024-02-23T06:08:37;3.13;;;1.50;;
18140;SDS011;9196;49.194;12.526;2024-02-23T06:11:04;2.90;;;1.20;;
18140;SDS011;9196;49.194;12.526;2024-02-23T06:13:31;4.28;;;1.30;;
18140;SDS011;9196;49.194;12.526;2024-02-23T06:15:59;1.35;;;1.25;;
18140;SDS011;9196;49.194;12.526;2024-02-23T06:18:25;7.45;;;1.33;;
18140;SDS011;9196;49.194;12.526;2024-02-23T06:20:52;1.67;;;1.58;;
18140;SDS011;9196;49.194;12.526;2024-02-23T06:23:19;1.63;;;1.23;;
18140;SDS011;9196;49.194;12.526;2024-02-23T06:25:48;0.90;;;0.90;;
18140;SDS011;9196;49.194;12.526;2024-02-23T06:28:15;1.15;;;1.05;;
18140;SDS011;9196;49.194;12.526;2024-02-23T06:30:42;1.20;;;1.10;;
18140;SDS011;9196;49.194;12.526;2024-02-23T06:33:09;3.70;;;1.45;;
18140;SDS011;9196;49.194;12.526;2024-02-23T06:35:35;1.88;;;1.00;;
18140;SDS011;9196;49.194;12.526;2024-02-23T06:38:02;1.50;;;1.00;;
18140;SDS011;9196;49.194;12.526;2024-02-23T06:40:30;1.10;;;1.00;;
18140;SDS011;9196;49.194;12.526;2024-02-23T06:42:59;1.52;;;1.42;;
18140;SDS011;9196;49.194;12.526;2024-02-23T06:45:26;1.40;;;1.30;;
18140;SDS011;9196;49.194;12.526;2024-02-23T06:47:52;1.05;;;1.00;;
18140;SDS011;9196;49.194;12.526;2024-02-23T06:50:19;1.67;;;1.58;;
18140;SDS011;9196;49.194;12.526;2024-02-23T06:52:47;2.47;;;1.70;;
18140;SDS011;9196;49.194;12.526;2024-02-23T06:55:14;4.82;;;2.33;;
18140;SDS011;9196;49.194;12.526;2024-02-23T06:57:42;1.83;;;1.73;;
18140;SDS011;9196;49.194;12.526;2024-02-23T07:00:11;2.60;;;2.30;;
18140;SDS011;9196;49.194;12.526;2024-02-23T07:02:38;4.53;;;2.00;;
18140;SDS011;9196;49.194;12.526;2024-02-23T07:05:05;6.20;;;1.98;;
18140;SDS011;9196;49.194;12.526;2024-02-23T07:07:34;2.08;;;1.70;;
18140;SDS011;9196;49.194;12.526;2024-02-23T07:10:01;3.75;;;1.80;;
18140;SDS011;9196;49.194;12.526;2024-02-23T07:12:27;1.95;;;1.85;;
18140;SDS011;9196;49.194;12.526;2024-02-23T07:14:54;2.35;;;1.60;;
18140;SDS011;9196;49.194;12.526;2024-02-23T07:17:23;1.30;;;1.30;;
18140;SDS011;9196;49.194;12.526;2024-02-23T07:19:50;1.70;;;1.60;;
18140;SDS011;9196;49.194;12.526;2024-02-23T07:22:17;3.30;;;1.90;;
18140;SDS011;9196;49.194;12.526;2024-02-23T07:24:45;1.58;;;1.40;;
18140;SDS011;9196;49.194;12.526;2024-02-23T07:27:12;1.35;;;1.25;;
18140;SDS011;9196;49.194;12.526;2024-02-23T07:29:39;2.08;;;1.48;;
18140;SDS011;9196;49.194;12.526;2024-02-23T07:32:06;1.40;;;1.30;;
18140;SDS011;9196;49.194;12.526;2024-02-23T07:34:34;4.63;;;1.15;;
18140;SDS011;9196;49.194;12.526;2024-02-23T07:37:01;1.58;;;1.23;;
18140;SDS011;9196;49.194;12.526;2024-02-23T07:39:28;1.45;;;1.27;;
18140;SDS011;9196;49.194;12.526;2024-02-23T07:41:55;1.10;;;1.10;;
18140;SDS011;9196;49.194;12.526;2024-02-23T07:44:22;4.03;;;1.30;;
18140;SDS011;9196;49.194;12.526;2024-02-23T07:46:50;2.00;;;1.77;;
18140;SDS011;9196;49.194;12.526;2024-02-23T07:49:17;1.38;;;1.27;;
18140;SDS011;9196;49.194;12.526;2024-02-23T07:51:46;1.10;;;1.10;;
18140;SDS011;9196;49.194;12.526;2024-02-23T07:54:12;0.88;;;0.88;;
18140;SDS011;9196;49.194;12.526;2024-02-23T07:56:39;1.50;;;1.30;;
18140;SDS011;9196;49.194;12.526;2024-02-23T07:59:06;3.05;;;1.63;;
18140;SDS011;9196;49.194;12.526;2024-02-23T08:01:33;1.20;;;1.20;;
18140;SDS011;9196;49.194;12.526;2024-02-23T08:04:00;1.30;;;1.30;;
18140;SDS011;9196;49.194;12.526;2024-02-23T08:06:28;3.80;;;1.42;;
18140;SDS011;9196;49.194;12.526;2024-02-23T08:08:56;0.75;;;0.75;;
18140;SDS011;9196;49.194;12.526;2024-02-23T08:11:23;0.93;;;0.93;;
18140;SDS011;9196;49.194;12.526;2024-02-23T08:13:50;2.30;;;1.10;;
18140;SDS011;9196;49.194;12.526;2024-02-23T08:16:16;2.60;;;1.20;;
18140;SDS011;9196;49.194;12.526;2024-02-23T08:18:43;0.93;;;0.90;;
18140;SDS011;9196;49.194;12.526;2024-02-23T08:21:10;1.45;;;1.10;;
18140;SDS011;9196;49.194;12.526;2024-02-23T08:23:37;6.03;;;1.60;;
18140;SDS011;9196;49.194;12.526;2024-02-23T08:26:06;1.20;;;1.20;;
18140;SDS011;9196;49.194;12.526;2024-02-23T08:28:35;6.47;;;1.50;;
18140;SDS011;9196;49.194;12.526;2024-02-23T08:31:02;1.70;;;1.00;;
18140;SDS011;9196;49.194;12.526;2024-02-23T08:33:28;0.77;;;0.77;;
18140;SDS011;9196;49.194;12.526;2024-02-23T08:35:55;1.30;;;1.00;;
18140;SDS011;9196;49.194;12.526;2024-02-23T08:38:22;1.60;;;1.50;;
18140;SDS011;9196;49.194;12.526;2024-02-23T08:40:49;1.35;;;1.30;;
18140;SDS011;9196;49.194;12.526;2024-02-23T08:43:17;1.33;;;1.20;;
18140;SDS011;9196;49.194;12.526;2024-02-23T08:45:45;1.63;;;1.38;;
18140;SDS011;9196;49.194;12.526;2024-02-23T08:48:11;2.45;;;1.50;;
18140;SDS011;9196;49.194;12.526;2024-02-23T08:50:40;1.10;;;1.10;;
18140;SDS011;9196;49.194;12.526;2024-02-23T08:53:06;1.98;;;1.17;;
18140;SDS011;9196;49.194;12.526;2024-02-23T08:55:33;1.48;;;1.15;;
18140;SDS011;9196;49.194;12.526;2024-02-23T08:58:00;1.20;;;1.20;;
18140;SDS011;9196;49.194;12.526;2024-02-23T09:00:28;0.88;;;0.88;;
18140;SDS011;9196;49.194;12.526;2024-02-23T09:02:55;3.63;;;1.10;;
18140;SDS011;9196;49.194;12.526;2024-02-23T09:05:22;1.50;;;1.00;;
18140;SDS011;9196;49.194;12.526;2024-02-23T09:07:49;4.47;;;1.40;;
18140;SDS011;9196;49.194;12.526;2024-02-23T09:10:16;1.40;;;1.25;;
18140;SDS011;9196;49.194;12.526;2024-02-23T09:12:43;4.47;;;0.90;;
18140;SDS011;9196;49.194;12.526;2024-02-23T09:15:10;3.05;;;1.10;;
18140;SDS011;9196;49.194;12.526;2024-02-23T09:17:39;2.00;;;1.90;;
18140;SDS011;9196;49.194;12.526;2024-02-23T09:20:06;1.02;;;1.02;;
18140;SDS011;9196;49.194;12.526;2024-02-23T09:22:34;1.00;;;1.00;;
18140;SDS011;9196;49.194;12.526;2024-02-23T09:25:01;2.13;;;1.83;;
18140;SDS011;9196;49.194;12.526;2024-02-23T09:27:30;2.28;;;1.00;;
18140;SDS011;9196;49.194;12.526;2024-02-23T09:29:57;1.27;;;1.10;;
18140;SDS011;9196;49.194;12.526;2024-02-23T09:32:24;0.90;;;0.90;;
18140;SDS011;9196;49.194;12.526;2024-02-23T09:34:52;1.83;;;1.02;;
18140;SDS011;9196;49.194;12.526;2024-02-23T09:37:19;0.95;;;0.95;;
18140;SDS011;9196;49.194;12.526;2024-02-23T09:39:45;9.07;;;1.65;;
18140;SDS011;9196;49.194;12.526;2024-02-23T09:42:12;2.15;;;1.00;;
18140;SDS011;9196;49.194;12.526;2024-02-23T09:44:39;1.55;;;1.45;;
18140;SDS011;9196;49.194;12.526;2024-02-23T09:47:10;2.33;;;2.20;;
18140;SDS011;9196;49.194;12.526;2024-02-23T09:49:39;1.70;;;1.60;;
18140;SDS011;9196;49.194;12.526;2024-02-23T09:52:08;2.35;;;2.20;;
18140;SDS011;9196;49.194;12.526;2024-02-23T09:54:36;2.42;;;2.33;;
18140;SDS011;9196;49.194;12.526;2024-02-23T09:57:05;2.55;;;2.22;;
18140;SDS011;9196;49.194;12.526;2024-02-23T09:59:33;1.52;;;1.42;;
18140;SDS011;9196;49.194;12.526;2024-02-23T10:02:01;1.45;;;1.35;;
18140;SDS011;9196;49.194;12.526;2024-02-23T10:04:29;4.22;;;2.15;;
18140;SDS011;9196;49.194;12.526;2024-02-23T10:06:56;1.30;;;1.20;;
18140;SDS011;9196;49.194;12.526;2024-02-23T10:09:24;2.15;;;1.40;;
18140;SDS011;9196;49.194;12.526;2024-02-23T10:11:51;2.97;;;1.55;;
18140;SDS011;9196;49.194;12.526;2024-02-23T10:14:19;0.90;;;0.90;;
18140;SDS011;9196;49.194;12.526;2024-02-23T10:16:46;1.55;;;1.20;;
18140;SDS011;9196;49.194;12.526;2024-02-23T10:19:13;2.55;;;1.05;;
18140;SDS011;9196;49.194;12.526;2024-02-23T10:21:40;1.52;;;1.42;;
18140;SDS011;9196;49.194;12.526;2024-02-23T10:24:07;1.20;;;1.10;;
18140;SDS011;9196;49.194;12.526;2024-02-23T10:26:35;1.50;;;1.40;;
18140;SDS011;9196;49.194;12.526;2024-02-23T10:29:02;2.90;;;1.75;;
18140;SDS011;9196;49.194;12.526;2024-02-23T10:31:29;3.78;;;2.47;;
18140;SDS011;9196;49.194;12.526;2024-02-23T10:34:00;1.67;;;1.15;;
18140;SDS011;9196;49.194;12.526;2024-02-23T10:36:34;0.80;;;0.80;;
18140;SDS011;9196;49.194;12.526;2024-02-23T10:39:04;0.90;;;0.90;;
18140;SDS011;9196;49.194;12.526;2024-02-23T10:41:35;1.33;;;1.23;;
18140;SDS011;9196;49.194;12.526;2024-02-23T10:44:03;0.88;;;0.85;;
18140;SDS011;9196;49.194;12.526;2024-02-23T10:46:31;2.22;;;1.58;;
18140;SDS011;9196;49.194;12.526;2024-02-23T10:48:58;2.75;;;1.25;;
18140;SDS011;9196;49.194;12.526;2024-02-23T10:51:27;1.13;;;1.13;;
18140;SDS011;9196;49.194;12.526;2024-02-23T10:53:54;2.67;;;1.85;;
18140;SDS011;9196;49.194;12.526;2024-02-23T10:56:22;1.60;;;1.40;;
18140;SDS011;9196;49.194;12.526;2024-02-23T10:58:52;1.70;;;1.60;;
18140;SDS011;9196;49.194;12.526;2024-02-23T11:01:19;4.35;;;2.03;;
18140;SDS011;9196;49.194;12.526;2024-02-23T11:03:48;1.30;;;1.20;;
18140;SDS011;9196;49.194;12.526;2024-02-23T11:06:16;2.83;;;2.17;;
18140;SDS011;9196;49.194;12.526;2024-02-23T11:08:46;3.38;;;2.95;;
18140;SDS011;9196;49.194;12.526;2024-02-23T11:11:15;6.25;;;4.03;;
18140;SDS011;9196;49.194;12.526;2024-02-23T11:13:44;2.35;;;2.15;;
18140;SDS011;9196;49.194;12.526;2024-02-23T11:16:21;1.63;;;1.50;;
18140;SDS011;9196;49.194;12.526;2024-02-23T11:18:49;1.00;;;1.00;;
18140;SDS011;9196;49.194;12.526;2024-02-23T11:21:16;0.90;;;0.90;;
18140;SDS011;9196;49.194;12.526;2024-02-23T11:23:43;1.15;;;1.05;;
18140;SDS011;9196;49.194;12.526;2024-02-23T11:26:11;7.13;;;1.00;;
18140;SDS011;9196;49.194;12.526;2024-02-23T11:28:42;1.45;;;0.95;;
18140;SDS011;9196;49.194;12.526;2024-02-23T11:31:15;4.78;;;0.90;;
18140;SDS011;9196;49.194;12.526;2024-02-23T11:33:48;1.50;;;0.80;;
18140;SDS011;9196;49.194;12.526;2024-02-23T11:36:22;3.10;;;0.90;;
18140;SDS011;9196;49.194;12.526;2024-02-23T11:38:51;1.05;;;0.90;;
18140;SDS011;9196;49.194;12.526;2024-02-23T11:41:20;1.30;;;1.20;;
18140;SDS011;9196;49.194;12.526;2024-02-23T11:43:48;1.50;;;1.40;;
18140;SDS011;9196;49.194;12.526;2024-02-23T11:46:17;1.48;;;1.05;;
18140;SDS011;9196;49.194;12.526;2024-02-23T11:48:44;1.02;;;0.80;;
18140;SDS011;9196;49.194;12.526;2024-02-23T11:51:11;2.22;;;1.20;;
18140;SDS011;9196;49.194;12.526;2024-02-23T11:53:39;6.10;;;1.10;;
18140;SDS011;9196;49.194;12.526;2024-02-23T11:56:06;2.60;;;0.90;;
18140;SDS011;9196;49.194;12.526;2024-02-23T11:58:33;7.13;;;1.15;;
18140;SDS011;9196;49.194;12.526;2024-02-23T12:01:00;1.13;;;1.05;;
18140;SDS011;9196;49.194;12.526;2024-02-23T12:03:29;0.90;;;0.90;;
18140;SDS011;9196;49.194;12.526;2024-02-23T12:05:56;1.45;;;1.15;;
18140;SDS011;9196;49.194;12.526;2024-02-23T12:08:24;1.23;;;1.23;;
18140;SDS011;9196;49.194;12.526;2024-02-23T12:10:52;2.00;;;0.80;;
18140;SDS011;9196;49.194;12.526;2024-02-23T12:13:20;1.27;;;1.17;;
18140;SDS011;9196;49.194;12.526;2024-02-23T12:15:47;1.92;;;1.05;;
18140;SDS011;9196;49.194;12.526;2024-02-23T12:18:14;1.13;;;0.90;;
18140;SDS011;9196;49.194;12.526;2024-02-23T12:20:42;4.47;;;1.13;;
18140;SDS011;9196;49.194;12.526;2024-02-23T12:23:09;1.02;;;0.98;;
18140;SDS011;9196;49.194;12.526;2024-02-23T12:25:38;2.92;;;1.75;;
18140;SDS011;9196;49.194;12.526;2024-02-23T12:28:05;2.55;;;1.90;;
18140;SDS011;9196;49.194;12.526;2024-02-23T12:30:32;1.85;;;1.75;;
18140;SDS011;9196;49.194;12.526;2024-02-23T12:33:06;3.65;;;1.40;;
18140;SDS011;9196;49.194;12.526;2024-02-23T12:35:33;2.35;;;0.93;;
18140;SDS011;9196;49.194;12.526;2024-02-23T12:38:02;1.85;;;1.20;;
18140;SDS011;9196;49.194;12.526;2024-02-23T12:40:29;2.83;;;1.75;;
18140;SDS011;9196;49.194;12.526;2024-02-23T12:42:56;1.35;;;1.35;;
18140;SDS011;9196;49.194;12.526;2024-02-23T12:45:23;1.60;;;1.30;;
18140;SDS011;9196;49.194;12.526;2024-02-23T12:47:50;1.05;;;1.00;;
18140;SDS011;9196;49.194;12.526;2024-02-23T12:50:17;4.00;;;1.10;;
18140;SDS011;9196;49.194;12.526;2024-02-23T12:52:43;1.85;;;1.00;;
18140;SDS011;9196;49.194;12.526;2024-02-23T12:55:13;2.53;;;1.35;;
18140;SDS011;9196;49.194;12.526;2024-02-23T12:57:40;1.40;;;1.30;;
18140;SDS011;9196;49.194;12.526;2024-02-23T13:00:07;1.25;;;1.00;;
18140;SDS011;9196;49.194;12.526;2024-02-23T13:02:34;5.28;;;2.05;;
18140;SDS011;9196;49.194;12.526;2024-02-23T13:05:01;1.40;;;1.00;;
18140;SDS011;9196;49.194;12.526;2024-02-23T13:07:28;1.23;;;1.13;;
18140;SDS011;9196;49.194;12.526;2024-02-23T13:09:55;3.15;;;2.40;;
18140;SDS011;9196;49.194;12.526;2024-02-23T13:12:23;2.85;;;1.63;;
18140;SDS011;9196;49.194;12.526;2024-02-23T13:14:50;7.78;;;1.90;;
18140;SDS011;9196;49.194;12.526;2024-02-23T13:17:17;2.53;;;1.65;;
18140;SDS011;9196;49.194;12.526;2024-02-23T13:19:44;3.97;;;3.25;;
18140;SDS011;9196;49.194;12.526;2024-02-23T13:22:11;4.88;;;3.03;;
18140;SDS011;9196;49.194;12.526;2024-02-23T13:24:37;6.53;;;3.92;;
18140;SDS011;9196;49.194;12.526;2024-02-23T13:27:05;7.00;;;2.70;;
18140;SDS011;9196;49.194;12.526;2024-02-23T13:29:33;4.10;;;2.15;;
18140;SDS011;9196;49.194;12.526;2024-02-23T13:32:00;6.78;;;2.20;;
18140;SDS011;9196;49.194;12.526;2024-02-23T13:34:27;1.60;;;1.35;;
18140;SDS011;9196;49.194;12.526;2024-02-23T13:36:54;2.45;;;2.25;;
18140;SDS011;9196;49.194;12.526;2024-02-23T13:39:21;1.40;;;1.30;;
18140;SDS011;9196;49.194;12.526;2024-02-23T13:41:47;4.65;;;1.58;;
18140;SDS011;9196;49.194;12.526;2024-02-23T13:44:14;4.28;;;1.70;;
18140;SDS011;9196;49.194;12.526;2024-02-23T13:46:42;2.55;;;1.25;;
18140;SDS011;9196;49.194;12.526;2024-02-23T13:49:09;6.35;;;1.05;;
18140;SDS011;9196;49.194;12.526;2024-02-23T13:51:37;1.67;;;1.58;;
18140;SDS011;9196;49.194;12.526;2024-02-23T13:54:05;1.45;;;1.35;;
18140;SDS011;9196;49.194;12.526;2024-02-23T13:56:31;3.50;;;1.48;;
18140;SDS011;9196;49.194;12.526;2024-02-23T13:58:58;3.05;;;1.40;;
18140;SDS011;9196;49.194;12.526;2024-02-23T14:01:25;4.20;;;1.40;;
18140;SDS011;9196;49.194;12.526;2024-02-23T14:03:54;2.55;;;1.70;;
18140;SDS011;9196;49.194;12.526;2024-02-23T14:06:20;1.55;;;1.10;;
18140;SDS011;9196;49.194;12.526;2024-02-23T14:08:47;2.40;;;2.20;;
18140;SDS011;9196;49.194;12.526;2024-02-23T14:11:14;2.88;;;1.85;;
18140;SDS011;9196;49.194;12.526;2024-02-23T14:13:41;1.77;;;1.65;;
18140;SDS011;9196;49.194;12.526;2024-02-23T14:16:09;1.60;;;1.50;;
18140;SDS011;9196;49.194;12.526;2024-02-23T14:18:36;2.53;;;2.00;;
18140;SDS011;9196;49.194;12.526;2024-02-23T14:21:06;1.85;;;1.75;;
18140;SDS011;9196;49.194;12.526;2024-02-23T14:23:33;4.97;;;2.88;;
18140;SDS011;9196;49.194;12.526;2024-02-23T14:25:59;2.83;;;2.63;;
18140;SDS011;9196;49.194;12.526;2024-02-23T14:28:27;3.00;;;2.08;;
18140;SDS011;9196;49.194;12.526;2024-02-23T14:30:54;3.45;;;3.15;;
18140;SDS011;9196;49.194;12.526;2024-02-23T14:33:21;9.48;;;2.80;;
18140;SDS011;9196;49.194;12.526;2024-02-23T14:35:48;2.33;;;2.13;;
18140;SDS011;9196;49.194;12.526;2024-02-23T14:38:16;3.08;;;2.60;;
18140;SDS011;9196;49.194;12.526;2024-02-23T14:40:43;4.35;;;3.85;;
18140;SDS011;9196;49.194;12.526;2024-02-23T14:43:10;2.78;;;2.58;;
18140;SDS011;9196;49.194;12.526;2024-02-23T14:45:37;3.20;;;2.70;;
18140;SDS011;9196;49.194;12.526;2024-02-23T14:48:04;5.37;;;4.50;;
18140;SDS011;9196;49.194;12.526;2024-02-23T14:50:31;6.45;;;4.18;;